Time;durP1;ratioP1;P1;durP2;ratioP2;P2;SDS_P1;SDS_P2;PMS_P1;PMS_P2;Temp;Humidity;BMP_temperature;BMP_pressure;BME280_temperature;BME280_humidity;BME280_pressure;Samples;Min_cycle;Max_cycle;Signal;HPM_P1;HPM_P2
2022/09/28 00:01:55;;;;;;;12.47;8.80;;;;;;;-141.97;87.77;47797.78;5039994;28;20193;-90
2022/09/28 00:04:20;;;;;;;9.93;8.10;;;;;;;-141.97;87.21;47588.28;5039987;28;20166;-89
2022/09/28 00:06:46;;;;;;;12.13;8.50;;;;;;;-141.97;86.91;47778.56;5021977;28;20303;-89
2022/09/28 00:09:15;;;;;;;14.27;8.83;;;;;;;-141.97;87.07;47661.31;5020737;28;20178;-89
2022/09/28 00:11:42;;;;;;;11.77;8.07;;;;;;;-141.97;87.34;47672.84;5020646;28;20174;-90
2022/09/28 00:14:09;;;;;;;10.10;7.83;;;;;;;-141.97;87.47;47503.69;5023574;28;20315;-90
2022/09/28 00:16:42;;;;;;;11.07;8.10;;;;;;;-141.97;88.31;47519.06;5020861;28;20237;-90
2022/09/28 00:19:09;;;;;;;10.50;7.80;;;;;;;-141.97;88.51;47407.59;5021308;28;20173;-89
2022/09/28 00:21:37;;;;;;;11.57;8.10;;;;;;;-141.97;88.50;47617.09;5025157;28;20170;-91
2022/09/28 00:24:11;;;;;;;12.93;8.07;;;;;;;-141.97;88.47;47620.94;5038965;28;20486;-90
2022/09/28 00:26:41;;;;;;;12.77;8.13;;;;;;;-141.97;88.66;47565.22;5020391;28;20202;-90
2022/09/28 00:29:12;;;;;;;11.30;7.80;;;;;;;-141.97;88.68;47820.84;5042289;28;20223;-89
2022/09/28 00:31:37;;;;;;;10.90;8.13;;;;;;;-141.97;88.45;47767.03;5021796;28;20170;-90
2022/09/28 00:34:04;;;;;;;11.07;8.70;;;;;;;-141.97;88.60;47582.50;5038869;28;20167;-89
2022/09/28 00:36:32;;;;;;;13.97;9.10;;;;;;;-141.97;89.11;47661.31;5039375;28;20237;-90
2022/09/28 00:39:01;;;;;;;13.50;9.00;;;;;;;-141.97;88.91;47584.44;5020837;28;20195;-90
2022/09/28 00:41:27;;;;;;;13.57;9.27;;;;;;;-141.97;88.57;47688.22;5037893;28;20170;-89
2022/09/28 00:44:13;;;;;;;11.67;9.03;;;;;;;-141.97;88.66;47636.31;5020150;28;20170;-89
2022/09/28 00:46:39;;;;;;;15.63;8.97;;;;;;;-141.97;87.79;47474.88;5038177;28;20369;-89
2022/09/28 00:49:12;;;;;;;13.57;9.97;;;;;;;-141.97;88.72;47490.25;5021048;28;20166;-89
2022/09/28 00:51:40;;;;;;;13.30;9.57;;;;;;;-141.97;89.69;47617.09;5020741;28;20170;-90
2022/09/28 00:54:09;;;;;;;14.03;10.40;;;;;;;-141.97;90.13;47365.31;5037698;28;20166;-89
2022/09/28 00:56:39;;;;;;;15.80;9.60;;;;;;;-141.97;90.11;47753.56;5020310;28;20170;-90
2022/09/28 00:59:07;;;;;;;15.47;10.53;;;;;;;-141.97;90.13;47818.94;5020095;28;20185;-90
2022/09/28 01:01:33;;;;;;;16.00;10.30;;;;;;;-141.97;90.62;47707.44;5037984;28;20256;-91
2022/09/28 01:04:00;;;;;;;12.23;9.53;;;;;;;-141.97;90.33;47784.34;5023262;28;20212;-91
2022/09/28 01:06:32;;;;;;;14.90;9.87;;;;;;;-141.97;90.22;47607.50;5023088;28;20197;-91
2022/09/28 01:09:01;;;;;;;14.73;10.00;;;;;;;-141.97;89.61;47728.59;5038009;28;20177;-90
2022/09/28 01:11:30;;;;;;;12.20;9.50;;;;;;;-141.97;89.67;47626.72;5019443;28;20220;-90
2022/09/28 01:13:56;;;;;;;15.67;9.17;;;;;;;-141.97;90.05;47795.88;5024076;28;20308;-90
2022/09/28 01:16:24;;;;;;;11.83;9.50;;;;;;;-141.97;89.79;47622.88;5036345;28;20540;-89
2022/09/28 01:19:05;;;;;;;12.87;9.73;;;;;;;-141.97;90.22;47701.69;5036008;28;20189;-90
2022/09/28 01:21:45;;;;;;;14.60;9.63;;;;;;;-141.97;90.35;47638.25;5041041;28;20185;-90
2022/09/28 01:24:42;;;;;;;11.97;9.43;;;;;;;-141.97;89.52;47624.78;5020317;28;20207;-90
2022/09/28 01:27:23;;;;;;;16.87;10.20;;;;;;;-141.97;89.03;47636.31;5019178;28;20188;-90
2022/09/28 01:30:08;;;;;;;12.63;9.80;;;;;;;-141.97;88.66;47659.38;5036437;28;20174;-90
2022/09/28 01:32:45;;;;;;;14.30;9.03;;;;;;;-141.97;88.08;47782.41;5036721;28;20170;-89
2022/09/28 01:35:16;;;;;;;15.30;9.57;;;;;;;-141.97;88.11;47569.06;5037274;28;20201;-90
2022/09/28 01:37:52;;;;;;;14.10;9.20;;;;;;;-141.97;88.03;47642.09;5019368;28;20197;-91
2022/09/28 01:40:21;;;;;;;14.50;9.30;;;;;;;-141.97;88.19;47592.13;5020162;28;20606;-90
2022/09/28 01:42:53;;;;;;;12.47;9.03;;;;;;;-141.97;88.48;47657.47;5020773;28;20182;-90
2022/09/28 01:45:39;;;;;;;12.60;9.47;;;;;;;-141.97;88.89;47607.50;5019056;28;20224;-89
2022/09/28 01:48:07;;;;;;;17.57;11.70;;;;;;;-141.97;88.68;47503.69;5012592;28;20177;-89
2022/09/28 01:50:37;;;;;;;14.57;10.67;;;;;;;-141.97;88.93;47655.53;5019576;28;20170;-88
2022/09/28 01:53:12;;;;;;;14.03;10.30;;;;;;;-141.97;88.57;47757.41;5019513;28;20216;-90
2022/09/28 01:55:43;;;;;;;15.23;11.17;;;;;;;-141.97;88.36;47515.22;5018847;28;20618;-90
2022/09/28 01:58:29;;;;;;;17.77;10.67;;;;;;;-141.97;88.57;47792.03;5036029;28;20162;-90
2022/09/28 02:01:04;;;;;;;17.03;11.50;;;;;;;-141.97;88.37;47805.47;5035028;28;20203;-91
2022/09/28 02:03:38;;;;;;;14.53;9.93;;;;;;;-141.97;87.93;47599.81;5035870;28;20398;-89
2022/09/28 02:06:17;;;;;;;13.87;10.43;;;;;;;-141.97;88.06;47570.97;5038575;28;20193;-88
2022/09/28 02:08:57;;;;;;;15.60;9.70;;;;;;;-141.97;87.85;47745.88;5036262;28;20165;-88
2022/09/28 02:11:22;;;;;;;11.23;8.63;;;;;;;-141.97;87.58;47534.44;5036022;28;20712;-88
2022/09/28 02:14:01;;;;;;;13.60;9.47;;;;;;;-141.97;87.41;47638.25;5023107;28;20170;-89
2022/09/28 02:16:39;;;;;;;12.50;8.90;;;;;;;-141.97;87.76;47692.06;5038408;28;20244;-89
2022/09/28 02:19:09;;;;;;;13.00;8.47;;;;;;;-141.97;87.77;47815.09;5043495;28;20154;-89
2022/09/28 02:22:12;;;;;;;12.10;9.20;;;;;;;-141.97;89.10;47653.63;5038711;28;20188;-91
2022/09/28 02:25:08;;;;;;;13.63;9.30;;;;;;;-141.97;88.37;47617.09;5034943;28;20181;-89
2022/09/28 02:27:41;;;;;;;13.43;8.90;;;;;;;-141.97;88.62;47826.63;5026474;28;20173;-89
2022/09/28 02:30:08;;;;;;;15.30;8.80;;;;;;;-141.97;89.10;47659.38;5047693;28;20182;-89
2022/09/28 02:32:39;;;;;;;12.83;9.17;;;;;;;-141.97;89.41;47565.22;5022187;28;20170;-90
2022/09/28 02:35:16;;;;;;;12.37;8.83;;;;;;;-141.97;89.49;47588.28;5037525;28;20185;-90
2022/09/28 02:37:43;;;;;;;16.07;9.40;;;;;;;-141.97;89.83;47697.84;5036542;28;20170;-88
2022/09/28 02:40:13;;;;;;;13.50;8.90;;;;;;;-141.97;89.86;47655.53;5047134;28;20178;-89
2022/09/28 02:43:03;;;;;;;15.03;9.50;;;;;;;-141.97;90.66;47655.53;5019972;28;20174;-89
2022/09/28 02:45:37;;;;;;;13.43;9.40;;;;;;;-141.97;91.06;47661.31;5036367;28;20189;-89
2022/09/28 02:48:03;;;;;;;12.60;8.73;;;;;;;-141.97;91.26;47711.28;5022074;28;20173;-90
2022/09/28 02:50:46;;;;;;;14.47;9.60;;;;;;;-141.97;91.66;47647.84;5037159;28;20162;-90
2022/09/28 02:53:25;;;;;;;14.83;9.30;;;;;;;-141.97;91.50;47640.16;5036771;28;20162;-89
2022/09/28 02:55:53;;;;;;;13.57;9.53;;;;;;;-141.97;91.35;47680.53;5020284;28;20174;-89
2022/09/28 02:58:27;;;;;;;13.67;9.57;;;;;;;-141.97;91.06;47653.63;5034268;28;20174;-89
2022/09/28 03:01:25;;;;;;;14.67;10.40;;;;;;;-141.97;90.84;47838.16;5034348;28;20236;-89
2022/09/28 03:04:17;;;;;;;17.97;10.43;;;;;;;-141.97;90.74;47617.09;5026122;28;20168;-90
2022/09/28 03:06:52;;;;;;;15.20;9.70;;;;;;;-141.97;90.35;47701.69;5043548;28;20194;-89
2022/09/28 03:09:28;;;;;;;22.60;12.70;;;;;;;-141.97;90.67;47840.06;5022110;28;20177;-89
2022/09/28 03:12:07;;;;;;;18.23;10.60;;;;;;;-141.97;91.03;47524.84;5023286;28;20221;-90
2022/09/28 03:14:32;;;;;;;19.90;10.27;;;;;;;-141.97;92.30;47599.81;5038028;28;20191;-90
2022/09/28 03:16:58;;;;;;;15.53;10.70;;;;;;;-141.97;92.18;47765.09;5038409;28;20682;-90
2022/09/28 03:19:29;;;;;;;19.80;11.00;;;;;;;-141.97;91.86;47592.13;5048925;28;20158;-89
2022/09/28 03:21:54;;;;;;;16.37;10.47;;;;;;;-141.97;91.76;47661.31;5040642;28;20178;-90
2022/09/28 03:24:20;;;;;;;17.70;11.40;;;;;;;-141.97;91.56;47799.72;5021698;28;20192;-89
2022/09/28 03:26:45;;;;;;;18.10;10.77;;;;;;;-141.97;92.06;47549.84;5037485;28;20190;-89
2022/09/28 03:29:11;;;;;;;19.10;9.90;;;;;;;-141.97;91.75;47842.00;5021827;28;20638;-89
2022/09/28 03:31:36;;;;;;;16.87;10.13;;;;;;;-141.97;91.83;47793.94;5040030;28;20595;-89
2022/09/28 03:34:02;;;;;;;15.77;9.93;;;;;;;-141.97;92.07;47584.44;5021130;28;20173;-89
2022/09/28 03:36:27;;;;;;;16.13;10.63;;;;;;;-141.97;91.94;47594.03;5021736;28;20162;-89
2022/09/28 03:38:55;;;;;;;19.23;11.20;;;;;;;-141.97;92.65;47519.06;5029275;28;20182;-89
2022/09/28 03:41:23;;;;;;;15.00;10.30;;;;;;;-141.97;92.73;47669.00;5029152;28;20178;-90
2022/09/28 03:43:48;;;;;;;15.27;10.30;;;;;;;-141.97;92.87;47749.72;5022197;28;20173;-89
2022/09/28 03:46:14;;;;;;;15.77;10.03;;;;;;;-141.97;92.95;47536.38;5040131;28;20182;-89
2022/09/28 03:48:40;;;;;;;16.73;10.30;;;;;;;-141.97;92.09;47469.09;5041410;28;20205;-89
2022/09/28 03:51:08;;;;;;;16.00;9.07;;;;;;;-141.97;91.60;47576.75;5042967;28;20203;-89
2022/09/28 03:53:35;;;;;;;14.27;8.87;;;;;;;-141.97;91.52;47645.94;5040932;28;20168;-89
2022/09/28 03:56:05;;;;;;;12.53;9.00;;;;;;;-141.97;91.82;47622.88;5021620;28;20180;-90
2022/09/28 03:58:31;;;;;;;17.27;9.10;;;;;;;-141.97;92.47;47661.31;5025095;28;20193;-89
2022/09/28 04:01:08;;;;;;;19.50;9.63;;;;;;;-141.97;93.34;47684.38;5040071;28;20174;-89
2022/09/28 04:03:34;;;;;;;13.73;9.43;;;;;;;-141.97;93.75;47649.78;5040057;28;20223;-90
2022/09/28 04:06:00;;;;;;;14.37;9.50;;;;;;;-141.97;94.37;47622.88;5021837;28;20202;-90
2022/09/28 04:08:25;;;;;;;16.10;9.63;;;;;;;-141.97;94.52;47699.75;5038410;28;20199;-89
2022/09/28 04:10:51;;;;;;;15.73;8.87;;;;;;;-141.97;94.21;47592.13;5020577;28;20178;-89
2022/09/28 04:13:16;;;;;;;14.43;9.57;;;;;;;-141.97;94.59;47694.00;5038077;28;20185;-90
2022/09/28 04:15:51;;;;;;;14.53;10.43;;;;;;;-141.97;94.32;47672.84;5021958;28;20170;-89
2022/09/28 04:18:16;;;;;;;30.20;19.43;;;;;;;-141.97;93.66;47576.75;5041761;28;20220;-89
2022/09/28 04:20:44;;;;;;;24.87;16.03;;;;;;;-141.97;93.35;47786.25;5021051;28;20227;-90
2022/09/28 04:23:10;;;;;;;32.77;20.53;;;;;;;-141.97;92.72;47570.97;5021108;28;20268;-88
2022/09/28 04:25:35;;;;;;;32.17;20.20;;;;;;;-141.97;92.66;47601.72;5021072;28;20726;-88
2022/09/28 04:30:46;;;;;;;22.10;13.20;;;;;;;-141.97;93.05;47595.97;5038877;28;20565;-90
2022/09/28 04:33:12;;;;;;;22.33;13.60;;;;;;;-141.97;92.73;47776.63;5021769;28;20237;-89
2022/09/28 04:35:37;;;;;;;17.73;11.70;;;;;;;-141.97;92.73;47630.56;5039314;28;20201;-89
2022/09/28 04:38:03;;;;;;;16.67;10.90;;;;;;;-141.97;92.93;47586.34;5020940;28;20178;-89
2022/09/28 04:40:28;;;;;;;18.63;12.40;;;;;;;-141.97;93.75;47788.19;5039342;28;20186;-89
2022/09/28 04:42:55;;;;;;;18.77;11.10;;;;;;;-141.97;94.38;47711.28;5025100;28;20166;-90
2022/09/28 04:45:21;;;;;;;18.67;11.30;;;;;;;-141.97;94.18;47436.44;5039207;28;20190;-89
2022/09/28 04:47:46;;;;;;;17.30;10.77;;;;;;;-141.97;94.72;47799.72;5020782;28;20170;-90
2022/09/28 04:50:12;;;;;;;15.00;10.40;;;;;;;-141.97;95.16;47697.84;5039051;28;20632;-89
2022/09/28 04:52:37;;;;;;;15.33;10.00;;;;;;;-141.97;96.42;47797.78;5024426;28;20649;-90
2022/09/28 04:55:05;;;;;;;19.03;10.37;;;;;;;-141.97;96.87;47749.72;5020581;28;20227;-89
2022/09/28 04:57:33;;;;;;;14.63;9.40;;;;;;;-141.97;96.67;47809.31;5019715;28;20350;-90
2022/09/28 04:59:58;;;;;;;14.57;10.17;;;;;;;-141.97;96.03;47511.38;5018878;28;20169;-89
2022/09/28 05:02:24;;;;;;;18.57;10.83;;;;;;;-141.97;95.83;47622.88;5023013;28;20234;-90
2022/09/28 05:04:49;;;;;;;18.07;10.20;;;;;;;-141.97;95.28;47638.25;5032918;28;20261;-90
2022/09/28 05:07:14;;;;;;;15.17;10.50;;;;;;;-141.97;94.79;47613.25;5033636;28;20190;-90
2022/09/28 05:09:40;;;;;;;16.77;10.60;;;;;;;-141.97;94.17;47792.03;5035434;28;20189;-89
2022/09/28 05:12:08;;;;;;;14.40;10.00;;;;;;;-141.97;94.12;47701.69;5017054;28;20174;-89
2022/09/28 05:14:33;;;;;;;16.80;10.37;;;;;;;-141.97;94.25;47569.06;5035391;28;20185;-90
2022/09/28 05:16:59;;;;;;;14.97;10.20;;;;;;;-141.97;94.01;47601.72;5035788;28;20228;-89
2022/09/28 05:19:24;;;;;;;15.43;10.00;;;;;;;-141.97;93.50;47603.66;5009620;28;20190;-89
2022/09/28 05:21:50;;;;;;;18.33;10.23;;;;;;;-141.97;93.29;47686.31;4999027;28;20233;-90
2022/09/28 05:24:15;;;;;;;15.17;10.00;;;;;;;-141.97;93.14;47588.28;5018708;28;20190;-88
2022/09/28 05:26:41;;;;;;;17.43;10.70;;;;;;;-141.97;92.77;47667.06;5013040;28;20206;-89
2022/09/28 05:29:06;;;;;;;19.27;11.10;;;;;;;-141.97;92.01;47757.41;5038848;28;20190;-88
2022/09/28 05:31:32;;;;;;;16.30;10.37;;;;;;;-141.97;91.73;47784.34;5024396;28;20186;-90
2022/09/28 05:33:57;;;;;;;23.37;12.67;;;;;;;-141.97;90.79;47584.44;5020239;28;20190;-90
2022/09/28 05:36:25;;;;;;;19.43;9.90;;;;;;;-141.97;89.85;47665.16;5038575;28;20554;-89
2022/09/28 05:38:51;;;;;;;17.60;11.63;;;;;;;-141.97;89.81;47682.47;5017769;28;20189;-88
2022/09/28 05:41:16;;;;;;;13.67;9.87;;;;;;;-141.97;89.16;47642.09;5034689;28;20243;-89
2022/09/28 05:43:44;;;;;;;15.93;9.57;;;;;;;-141.97;89.48;47684.38;5037316;28;20284;-89
2022/09/28 05:46:10;;;;;;;13.97;9.67;;;;;;;-141.97;89.82;47640.16;5018829;28;20212;-89
2022/09/28 05:48:35;;;;;;;14.00;9.33;;;;;;;-141.97;91.30;47595.97;5035415;28;20187;-89
2022/09/28 05:51:01;;;;;;;11.87;7.43;;;;;;;-141.97;91.18;47595.97;5034917;28;20185;-89
2022/09/28 05:53:26;;;;;;;11.67;8.10;;;;;;;-141.97;91.26;47786.25;5021686;28;20190;-89
2022/09/28 05:55:56;;;;;;;12.63;7.70;;;;;;;-141.97;91.82;47672.84;5029585;28;20182;-89
2022/09/28 05:58:22;;;;;;;12.47;8.20;;;;;;;-141.97;91.14;47661.31;5015580;28;20329;-90
2022/09/28 06:00:53;;;;;;;14.00;8.50;;;;;;;-141.97;89.64;47649.78;4989089;28;20282;-89
2022/09/28 06:03:19;;;;;;;12.83;7.63;;;;;;;-141.97;88.63;47699.75;5002031;28;20194;-89
2022/09/28 06:05:46;;;;;;;11.67;7.50;;;;;;;-141.97;87.31;47663.22;5018394;28;20213;-88
2022/09/28 06:08:11;;;;;;;10.57;6.53;;;;;;;-141.97;86.49;47553.69;5005634;28;20186;-88
2022/09/28 06:10:37;;;;;;;9.73;6.53;;;;;;;-141.97;87.04;47828.53;5025882;28;20645;-89
2022/09/28 06:13:02;;;;;;;8.50;6.00;;;;;;;-141.97;86.34;47745.88;5002702;28;20196;-90
2022/09/28 06:15:30;;;;;;;8.10;5.60;;;;;;;-141.97;84.92;47615.19;4998480;28;20639;-89
2022/09/28 06:17:57;;;;;;;9.27;5.37;;;;;;;-141.97;82.96;47672.84;5015133;28;20222;-88
2022/09/28 06:20:27;;;;;;;11.63;5.87;;;;;;;-141.97;82.55;47576.75;5021102;28;20209;-90
2022/09/28 06:22:53;;;;;;;9.57;6.27;;;;;;;-141.97;81.46;47561.38;5017211;28;20229;-90
2022/09/28 06:25:20;;;;;;;8.23;5.77;;;;;;;-141.97;82.18;47634.41;4997155;28;20677;-89
2022/09/28 06:28:10;;;;;;;10.43;6.00;;;;;;;-141.97;82.03;47684.38;4997611;28;20267;-89
2022/09/28 06:30:37;;;;;;;10.70;6.37;;;;;;;-141.97;81.17;47678.63;4974189;28;20276;-88
2022/09/28 06:33:04;;;;;;;9.30;5.40;;;;;;;-141.97;79.41;47686.31;4961932;28;20637;-88
2022/09/28 06:35:30;;;;;;;7.53;5.40;;;;;;;-141.97;79.11;47680.53;4979787;28;20244;-88
2022/09/28 06:37:57;;;;;;;7.97;4.50;;;;;;;-141.97;78.16;47601.72;4982954;28;20188;-88
2022/09/28 06:40:23;;;;;;;6.30;4.60;;;;;;;-141.97;76.11;47594.03;4981438;28;20212;-88
2022/09/28 06:43:00;;;;;;;5.33;4.07;;;;;;;-141.97;76.24;47561.38;4960379;28;20267;-88
2022/09/28 06:45:27;;;;;;;9.27;4.97;;;;;;;-141.97;77.09;47636.31;4977663;28;20207;-88
2022/09/28 06:47:58;;;;;;;11.30;5.33;;;;;;;-141.97;75.47;47607.50;4975681;28;20601;-88
2022/09/28 06:50:25;;;;;;;9.90;5.70;;;;;;;-141.97;74.32;47653.63;4976571;28;20188;-88
2022/09/28 06:52:53;;;;;;;7.63;5.87;;;;;;;-141.97;75.07;47617.09;4978098;28;20183;-87
2022/09/28 06:55:20;;;;;;;10.27;6.30;;;;;;;-141.97;74.46;47815.09;4961897;28;20924;-90
2022/09/28 06:57:46;;;;;;;10.47;5.87;;;;;;;-141.97;73.22;47615.19;4988346;28;20263;-88
2022/09/28 07:00:12;;;;;;;11.20;5.93;;;;;;;-141.97;72.78;47624.78;4960764;28;20188;-89
2022/09/28 07:02:37;;;;;;;10.47;5.97;;;;;;;-141.97;71.66;47403.75;4965078;28;20319;-86
2022/09/28 07:05:05;;;;;;;7.63;5.17;;;;;;;-141.97;72.13;47636.31;4976445;28;20712;-87
2022/09/28 07:07:30;;;;;;;12.53;6.20;;;;;;;-141.97;71.16;47770.88;4995006;28;20198;-87
2022/09/28 07:09:56;;;;;;;11.63;7.07;;;;;;;-141.97;70.06;47634.41;5015624;28;20237;-87
2022/09/28 07:12:23;;;;;;;14.90;8.77;;;;;;;-141.97;68.93;47622.88;4998954;28;20182;-89
2022/09/28 07:14:48;;;;;;;11.73;7.77;;;;;;;-141.97;68.19;47501.78;4999371;28;20556;-88
2022/09/28 07:17:15;;;;;;;17.00;12.87;;;;;;;-141.97;67.24;47619.03;5037625;28;20240;-88
2022/09/28 07:19:40;;;;;;;8.97;6.80;;;;;;;-141.97;66.08;47619.03;5058903;28;20419;-88
2022/09/28 07:22:06;;;;;;;11.37;6.60;;;;;;;-141.97;65.69;47365.31;5040638;28;20185;-88
2022/09/28 07:24:31;;;;;;;7.43;5.33;;;;;;;-141.97;64.57;47788.19;5037965;28;20185;-88
2022/09/28 07:26:57;;;;;;;8.37;5.00;;;;;;;-141.97;64.05;47836.22;5039134;28;20201;-88
2022/09/28 07:29:22;;;;;;;10.43;5.43;;;;;;;-141.97;62.99;47647.84;5041329;28;20223;-89
2022/09/28 07:31:48;;;;;;;8.07;5.43;;;;;;;-141.97;63.00;47488.31;5039454;28;20618;-88
2022/09/28 07:34:13;;;;;;;10.37;5.77;;;;;;;-141.97;62.46;47422.97;5056830;28;20178;-89
2022/09/28 07:36:39;;;;;;;10.73;6.20;;;;;;;-141.97;61.57;47442.19;5039198;28;20184;-88
2022/09/28 07:39:04;;;;;;;14.67;9.60;;;;;;;-141.97;60.70;47492.16;5056784;28;20664;-89
2022/09/28 07:41:33;;;;;;;17.07;11.27;;;;;;;-141.97;60.22;47570.97;5038495;28;20192;-86
2022/09/28 07:44:08;;;;;;;17.57;12.67;;;;;;;-141.97;58.76;47532.53;5037183;28;20189;-88
2022/09/28 07:46:35;;;;;;;13.33;10.07;;;;;;;-141.97;58.43;47513.31;5055995;28;20209;-88
2022/09/28 07:49:04;;;;;;;12.23;7.80;;;;;;;-141.97;58.03;47478.72;5028424;28;20601;-87
2022/09/28 07:51:29;;;;;;;10.73;8.50;;;;;;;-141.97;57.80;47557.53;5054390;28;20188;-89
2022/09/28 07:53:55;;;;;;;12.13;8.03;;;;;;;-141.97;57.55;47576.75;5037035;28;20193;-88
2022/09/28 07:56:20;;;;;;;10.23;7.00;;;;;;;-141.97;57.31;47538.28;5043445;28;20188;-90
2022/09/28 07:58:48;;;;;;;12.77;6.70;;;;;;;-141.97;56.75;47517.16;5035047;28;20186;-84
2022/09/28 08:01:16;;;;;;;8.20;4.80;;;;;;;-141.97;55.75;47565.22;5034036;28;20207;-89
2022/09/28 08:03:46;;;;;;;9.00;5.17;;;;;;;-141.97;55.34;47544.06;5055442;28;20209;-88
2022/09/28 08:06:14;;;;;;;13.17;6.50;;;;;;;-141.97;54.51;47484.47;5055944;28;20211;-87
2022/09/28 08:08:43;;;;;;;7.13;3.83;;;;;;;-141.97;53.26;47590.19;5041683;28;20201;-88
2022/09/28 08:11:14;;;;;;;5.73;3.60;;;;;;;-141.97;51.39;47559.44;5040290;28;20284;-84
2022/09/28 08:13:39;;;;;;;6.50;4.10;;;;;;;-141.97;50.23;47530.59;5049897;28;20261;-88
2022/09/28 08:16:07;;;;;;;6.30;3.70;;;;;;;-141.97;49.83;47567.13;5047177;28;20209;-87
2022/09/28 08:18:35;;;;;;;5.87;3.97;;;;;;;-141.97;49.60;47530.59;5020624;28;20202;-88
2022/09/28 08:23:46;;;;;;;6.80;3.90;;;;;;;-141.97;50.68;47484.47;5007493;28;20187;-87
2022/09/28 08:26:12;;;;;;;5.80;4.00;;;;;;;-141.97;49.48;47369.16;4990182;28;20203;-88
2022/09/28 08:28:38;;;;;;;6.17;3.67;;;;;;;-141.97;48.55;47576.75;5014132;28;20569;-89
2022/09/28 08:31:06;;;;;;;6.53;3.83;;;;;;;-141.97;47.95;47453.72;5031418;28;20911;-88
2022/09/28 08:33:32;;;;;;;6.10;3.77;;;;;;;-141.97;47.78;47511.38;5022422;28;20640;-89
2022/09/28 08:35:59;;;;;;;6.80;4.10;;;;;;;-141.97;47.17;47503.69;5026583;28;20170;-89
2022/09/28 08:38:27;;;;;;;6.47;3.70;;;;;;;-141.97;46.59;47449.88;5008528;28;20560;-90
2022/09/28 08:41:20;;;;;;;7.15;3.55;;;;;;;-141.97;45.78;47490.25;5014644;28;20181;-88
2022/09/28 08:44:08;;;;;;;5.97;3.80;;;;;;;-141.97;45.97;47530.59;5003962;28;20219;-87
2022/09/28 08:46:44;;;;;;;4.20;3.77;;;;;;;-141.97;45.35;47528.69;5022870;28;20213;-87
2022/09/28 08:49:18;;;;;;;7.45;4.30;;;;;;;-141.97;44.94;47534.44;5002283;28;20187;-86
2022/09/28 08:51:56;;;;;;;5.38;3.67;;;;;;;-141.97;43.41;47501.78;5027534;28;20628;-88
2022/09/28 08:54:27;;;;;;;4.93;3.35;;;;;;;-141.97;43.55;47503.69;5003073;28;20777;-87
2022/09/28 08:56:58;;;;;;;5.18;3.00;;;;;;;-141.97;43.52;47649.78;4983120;28;20195;-86
2022/09/28 08:59:47;;;;;;;4.40;3.10;;;;;;;-141.97;43.04;47438.34;4992224;28;20645;-88
2022/09/28 09:02:24;;;;;;;3.30;3.00;;;;;;;-141.97;43.14;47507.53;4998284;28;20698;-86
2022/09/28 09:04:51;;;;;;;4.03;2.88;;;;;;;-141.97;43.42;47422.97;5030493;28;20661;-87
2022/09/28 09:07:38;;;;;;;5.38;2.80;;;;;;;-141.97;42.65;47511.38;5019137;28;20223;-86
2022/09/28 09:10:30;;;;;;;4.35;2.80;;;;;;;-141.97;42.24;47519.06;5021692;28;20247;-88
2022/09/28 09:13:02;;;;;;;4.82;2.75;;;;;;;-141.97;41.94;47526.75;4976483;28;20197;-87
2022/09/28 09:15:46;;;;;;;6.07;3.00;;;;;;;-141.97;41.83;47380.69;4985394;28;20242;-88
2022/09/28 09:18:51;;;;;;;3.10;2.80;;;;;;;-141.97;42.30;47499.84;4983885;28;20233;-87
2022/09/28 09:21:45;;;;;;;6.07;2.95;;;;;;;-141.97;43.06;47522.91;4953700;28;20202;-88
2022/09/28 09:24:30;;;;;;;4.65;3.28;;;;;;;-141.97;42.77;47463.34;4953060;28;20294;-88
2022/09/28 09:27:05;;;;;;;4.57;3.00;;;;;;;-141.97;42.55;47517.16;4955963;28;20643;-89
2022/09/28 09:29:46;;;;;;;3.60;2.92;;;;;;;-141.97;41.69;47476.78;4957524;29;20187;-86
2022/09/28 09:32:29;;;;;;;6.65;4.20;;;;;;;-141.97;41.88;47519.06;4936899;29;20196;-86
2022/09/28 09:34:55;;;;;;;3.97;3.10;;;;;;;-141.97;41.43;47515.22;4952860;29;20193;-87
2022/09/28 09:37:33;;;;;;;4.03;3.30;;;;;;;-141.97;41.04;47480.63;4952700;29;20636;-87
2022/09/28 09:40:01;;;;;;;4.95;3.28;;;;;;;-141.97;40.83;47515.22;4953835;29;20292;-86
2022/09/28 09:43:04;;;;;;;5.97;3.00;;;;;;;-141.97;40.60;47472.94;4957088;29;20707;-86
2022/09/28 09:45:47;;;;;;;5.40;3.20;;;;;;;-141.97;39.54;47449.88;4956137;29;20225;-88
2022/09/28 09:48:25;;;;;;;5.25;2.72;;;;;;;-141.97;39.86;47426.81;4953955;29;20189;-88
2022/09/28 09:51:01;;;;;;;5.07;2.70;;;;;;;-141.97;40.11;47501.78;4956626;28;20194;-88
2022/09/28 09:53:44;;;;;;;2.60;2.30;;;;;;;-141.97;38.41;47422.97;4991529;28;20189;-88
2022/09/28 09:56:35;;;;;;;4.18;2.40;;;;;;;-141.97;38.63;47449.88;4974441;28;20193;-87
2022/09/28 09:59:17;;;;;;;2.60;2.40;;;;;;;-141.97;39.22;47494.09;4942572;29;20195;-87
2022/09/28 10:01:43;;;;;;;5.47;2.65;;;;;;;-141.97;38.94;47492.16;4924204;29;20306;-86
2022/09/28 10:04:18;;;;;;;4.50;2.75;;;;;;;-141.97;38.87;47496.00;4934160;29;20215;-86
2022/09/28 10:06:45;;;;;;;6.13;3.00;;;;;;;-141.97;38.78;47396.06;4930003;29;20295;-86
2022/09/28 10:09:22;;;;;;;3.53;2.67;;;;;;;-141.97;39.25;47480.63;4922542;29;20658;-85
2022/09/28 10:11:49;;;;;;;4.25;2.70;;;;;;;-141.97;38.97;47472.94;4938471;29;20190;-86
2022/09/28 10:14:22;;;;;;;4.15;2.80;;;;;;;-141.97;40.05;47390.31;4938319;29;20785;-85
2022/09/28 10:16:50;;;;;;;4.00;2.72;;;;;;;-141.97;39.94;47494.09;4937748;29;20243;-86
2022/09/28 10:19:18;;;;;;;5.55;3.00;;;;;;;-141.97;39.56;47494.09;4924360;29;20684;-85
2022/09/28 10:21:49;;;;;;;5.05;2.90;;;;;;;-141.97;39.13;47465.25;4936104;29;20283;-87
2022/09/28 10:24:24;;;;;;;4.32;2.80;;;;;;;-141.97;38.05;47459.50;4936764;29;20190;-87
2022/09/28 10:26:53;;;;;;;4.13;3.00;;;;;;;-141.97;37.55;47465.25;4935789;29;20251;-86
2022/09/28 10:29:24;;;;;;;3.88;3.00;;;;;;;-141.97;37.75;47459.50;4933323;29;20233;-86
2022/09/28 10:31:52;;;;;;;6.57;2.70;;;;;;;-141.97;37.90;47457.56;4937283;29;20200;-87
2022/09/28 10:34:24;;;;;;;4.82;3.10;;;;;;;-141.97;38.09;47480.63;4938036;29;20346;-87
2022/09/28 10:37:09;;;;;;;5.15;2.83;;;;;;;-141.97;38.10;47411.44;4999631;28;20192;-87
2022/09/28 10:39:52;;;;;;;5.07;2.90;;;;;;;-141.97;37.30;47472.94;4995908;28;20212;-86
2022/09/28 10:42:30;;;;;;;5.57;2.83;;;;;;;-141.97;37.15;47361.47;4984915;28;20179;-87
2022/09/28 10:45:18;;;;;;;4.63;3.42;;;;;;;-141.97;37.41;47424.91;4985209;28;20188;-87
2022/09/28 10:47:44;;;;;;;6.50;3.92;;;;;;;-141.97;38.00;47553.69;4978057;28;20185;-87
2022/09/28 10:50:23;;;;;;;7.95;4.50;;;;;;;-141.97;38.12;47447.97;5002183;28;20174;-87
2022/09/28 10:52:48;;;;;;;5.95;3.80;;;;;;;-141.97;38.17;47394.16;5004760;28;20488;-87
2022/09/28 10:55:20;;;;;;;6.18;3.40;;;;;;;-141.97;38.18;47474.88;4983953;28;20319;-87
2022/09/28 10:57:46;;;;;;;5.03;3.47;;;;;;;-141.97;38.53;47526.75;4985046;28;20194;-86
2022/09/28 11:00:33;;;;;;;7.55;4.00;;;;;;;-141.97;38.81;47463.34;4990463;28;20262;-86
2022/09/28 11:03:01;;;;;;;7.55;3.75;;;;;;;-141.97;39.11;47469.09;4985803;28;20233;-84
2022/09/28 11:05:27;;;;;;;5.75;3.72;;;;;;;-141.97;38.33;47492.16;5031593;28;20225;-85
2022/09/28 11:07:54;;;;;;;5.47;3.47;;;;;;;-141.97;38.61;47426.81;5006257;28;20650;-85
2022/09/28 11:10:24;;;;;;;7.90;3.70;;;;;;;-141.97;38.56;47474.88;5009389;28;20213;-85
2022/09/28 11:12:52;;;;;;;4.95;3.80;;;;;;;-141.97;38.93;47499.84;5026556;28;21276;-85
2022/09/28 11:15:20;;;;;;;6.18;3.88;;;;;;;-141.97;39.18;47471.03;5000208;28;20181;-85
2022/09/28 11:17:45;;;;;;;4.95;3.70;;;;;;;-141.97;39.54;47467.19;5040867;28;20224;-85
2022/09/28 11:20:23;;;;;;;6.82;3.70;;;;;;;-141.97;39.39;47474.88;5054800;28;20714;-85
2022/09/28 11:22:50;;;;;;;8.43;3.70;;;;;;;-141.97;39.79;47463.34;5041948;28;20194;-85
2022/09/28 11:25:15;;;;;;;6.95;3.50;;;;;;;-141.97;39.08;47474.88;5038636;28;20259;-86
2022/09/28 11:28:03;;;;;;;5.60;3.40;;;;;;;-141.97;39.27;47472.94;5054333;28;20245;-86
2022/09/28 11:30:37;;;;;;;5.25;3.42;;;;;;;-141.97;38.12;47472.94;5054553;28;20271;-86
2022/09/28 11:33:11;;;;;;;7.47;3.53;;;;;;;-141.97;38.87;47428.75;5054598;28;20176;-87